createdAt,value
2022-11-19T00:00:35.547Z,0.00
2022-11-19T00:01:35.530Z,0.00
2022-11-19T00:02:35.589Z,0.00
2022-11-19T00:03:35.600Z,0.00
2022-11-19T00:04:35.483Z,0.00
2022-11-19T00:05:35.472Z,0.00
2022-11-19T00:06:35.453Z,0.00
2022-11-19T00:07:35.573Z,0.00
2022-11-19T00:08:35.424Z,0.00
2022-11-19T00:09:35.414Z,0.00
2022-11-19T00:10:35.395Z,0.00
2022-11-19T00:11:35.384Z,0.00
2022-11-19T00:12:35.367Z,0.00
2022-11-19T00:13:35.354Z,0.00
2022-11-19T00:14:35.337Z,0.00
2022-11-19T00:15:35.325Z,0.00
2022-11-19T00:16:35.307Z,0.00
2022-11-19T00:17:35.296Z,0.00
2022-11-19T00:19:35.263Z,0.00
2022-11-19T00:20:35.264Z,0.00
2022-11-19T00:21:35.287Z,0.00
2022-11-19T00:22:35.221Z,0.00
2022-11-19T00:23:35.252Z,0.00
2022-11-19T00:24:35.191Z,0.00
2022-11-19T00:25:35.180Z,0.00
2022-11-19T00:26:35.160Z,0.00
2022-11-19T00:27:35.152Z,0.00
2022-11-19T00:28:35.131Z,0.00
2022-11-19T00:29:35.126Z,0.00
2022-11-19T00:30:47.937Z,0.00
2022-11-19T00:31:35.185Z,0.00
2022-11-19T00:32:35.075Z,0.00
2022-11-19T00:33:35.061Z,0.00
2022-11-19T00:34:35.041Z,0.00
2022-11-19T00:35:35.030Z,0.00
2022-11-19T00:36:35.027Z,0.00
2022-11-19T00:37:35.002Z,0.00
2022-11-19T00:38:34.986Z,0.00
2022-11-19T00:39:35.014Z,0.00
2022-11-19T00:40:34.954Z,0.00
2022-11-19T00:41:34.944Z,0.00
2022-11-19T00:42:34.928Z,0.00
2022-11-19T00:43:34.912Z,0.00
2022-11-19T00:44:37.403Z,0.00
2022-11-19T00:45:34.898Z,0.00
2022-11-19T00:46:34.864Z,0.00
2022-11-19T00:47:34.854Z,0.00
2022-11-19T00:48:34.834Z,0.00
2022-11-19T00:49:34.825Z,0.00
2022-11-19T00:50:34.905Z,0.00
2022-11-19T00:51:34.794Z,0.00
2022-11-19T00:52:34.776Z,0.00
2022-11-19T00:53:34.765Z,0.00
2022-11-19T00:54:34.746Z,0.00
2022-11-19T00:55:34.751Z,0.00
2022-11-19T00:56:34.717Z,0.00
2022-11-19T00:57:34.705Z,0.00
2022-11-19T00:58:34.690Z,0.00
2022-11-19T00:59:34.676Z,0.00
2022-11-19T01:00:34.659Z,0.00
2022-11-19T01:01:34.715Z,0.00
2022-11-19T01:02:34.627Z,0.00
2022-11-19T01:03:34.618Z,0.00
2022-11-19T01:04:34.601Z,0.00
2022-11-19T01:05:34.588Z,0.00
2022-11-19T01:06:34.568Z,0.00
2022-11-19T01:07:34.661Z,0.00
2022-11-19T01:08:34.543Z,0.00
2022-11-19T01:09:34.528Z,0.00
2022-11-19T01:10:34.509Z,0.00
2022-11-19T01:11:34.537Z,0.00
2022-11-19T01:12:34.479Z,0.00
2022-11-19T01:13:34.570Z,0.00
2022-11-19T01:14:34.500Z,0.00
2022-11-19T01:15:34.456Z,0.00
2022-11-19T01:16:34.418Z,0.00
2022-11-19T01:17:34.410Z,0.00
2022-11-19T01:18:34.392Z,0.00
2022-11-19T01:19:34.381Z,0.00
2022-11-19T01:20:34.412Z,0.00
2022-11-19T01:21:34.361Z,0.00
2022-11-19T01:22:34.332Z,0.00
2022-11-19T01:23:34.340Z,0.00
2022-11-19T01:24:34.303Z,0.00
2022-11-19T01:25:34.290Z,0.00
2022-11-19T01:26:34.274Z,0.00
2022-11-19T01:27:34.277Z,0.00
2022-11-19T01:28:34.241Z,0.00
2022-11-19T01:29:34.230Z,0.00
2022-11-19T01:30:34.217Z,0.00
2022-11-19T01:31:34.201Z,0.00
2022-11-19T01:32:34.182Z,0.00
2022-11-19T01:33:34.172Z,0.00
2022-11-19T01:34:34.153Z,0.00
2022-11-19T01:35:34.141Z,0.00
2022-11-19T01:36:34.124Z,0.00
2022-11-19T01:37:34.118Z,0.00
2022-11-19T01:38:34.092Z,0.00
2022-11-19T01:39:34.081Z,0.00
2022-11-19T01:40:34.066Z,0.00
2022-11-19T01:41:34.053Z,0.00
2022-11-19T01:42:34.036Z,0.00
2022-11-19T01:43:34.057Z,0.00
2022-11-19T01:44:34.005Z,0.00
2022-11-19T01:45:33.993Z,0.00
2022-11-19T01:46:33.978Z,0.00
2022-11-19T01:47:33.963Z,0.00
2022-11-19T01:48:33.955Z,0.00
2022-11-19T01:49:33.935Z,0.00
2022-11-19T01:50:33.968Z,0.00
2022-11-19T01:51:33.907Z,0.00
2022-11-19T01:52:33.886Z,0.00
2022-11-19T01:53:33.875Z,0.00
2022-11-19T01:54:33.856Z,0.00
2022-11-19T01:55:33.846Z,0.00
2022-11-19T01:56:33.832Z,0.00
2022-11-19T01:57:33.816Z,0.00
2022-11-19T01:58:33.797Z,0.00
2022-11-19T01:59:33.803Z,0.00
2022-11-19T02:00:33.768Z,0.00
2022-11-19T02:01:33.885Z,0.00
2022-11-19T02:02:33.738Z,0.00
2022-11-19T02:03:33.728Z,0.00
2022-11-19T02:04:33.721Z,0.00
2022-11-19T02:05:33.698Z,0.00
2022-11-19T02:06:33.679Z,0.00
2022-11-19T02:07:33.755Z,0.00
2022-11-19T02:08:33.651Z,0.00
2022-11-19T02:09:33.651Z,0.00
2022-11-19T02:10:33.724Z,0.00
2022-11-19T02:11:33.619Z,0.00
2022-11-19T02:12:33.592Z,0.00
2022-11-19T02:13:33.580Z,0.00
2022-11-19T02:14:33.577Z,0.00
2022-11-19T02:15:33.573Z,0.00
2022-11-19T02:16:33.532Z,0.00
2022-11-19T02:17:33.522Z,0.00
2022-11-19T02:18:33.503Z,0.00
2022-11-19T02:19:33.493Z,0.00
2022-11-19T02:20:33.478Z,0.00
2022-11-19T02:21:33.465Z,0.00
2022-11-19T02:22:33.443Z,0.00
2022-11-19T02:23:33.432Z,0.00
2022-11-19T02:24:33.415Z,0.00
2022-11-19T02:25:33.405Z,0.00
2022-11-19T02:26:33.385Z,0.00
2022-11-19T02:27:33.374Z,0.00
2022-11-19T02:28:33.355Z,0.00
2022-11-19T02:29:33.345Z,0.00
2022-11-19T02:30:33.325Z,0.00
2022-11-19T02:31:33.374Z,0.00
2022-11-19T02:32:33.295Z,0.00
2022-11-19T02:33:33.285Z,0.00
2022-11-19T02:34:33.268Z,0.00
2022-11-19T02:35:33.260Z,0.00
2022-11-19T02:36:33.236Z,0.00
2022-11-19T02:37:33.225Z,0.00
2022-11-19T02:38:33.205Z,0.00
2022-11-19T02:39:33.194Z,0.00
2022-11-19T02:40:33.176Z,0.00
2022-11-19T02:41:33.175Z,0.00
2022-11-19T02:42:33.151Z,0.00
2022-11-19T02:43:33.134Z,0.00
2022-11-19T02:44:33.116Z,0.00
2022-11-19T02:45:33.105Z,0.00
2022-11-19T02:46:33.087Z,0.00
2022-11-19T02:47:33.098Z,0.00
2022-11-19T02:48:33.058Z,0.00
2022-11-19T02:49:33.044Z,0.00
2022-11-19T02:50:33.027Z,0.00
2022-11-19T02:51:33.054Z,0.00
2022-11-19T02:52:32.998Z,0.00
2022-11-19T02:53:32.986Z,0.00
2022-11-19T02:54:32.966Z,0.00
2022-11-19T02:55:32.955Z,0.00
2022-11-19T02:56:32.937Z,0.00
2022-11-19T02:57:33.026Z,0.00
2022-11-19T02:58:32.907Z,0.00
2022-11-19T02:59:32.895Z,0.00
2022-11-19T03:00:32.878Z,0.00
2022-11-19T03:01:33.036Z,0.00
2022-11-19T03:02:32.846Z,0.00
2022-11-19T03:03:32.857Z,0.00
2022-11-19T03:04:32.975Z,0.00
2022-11-19T03:05:32.806Z,0.00
2022-11-19T03:06:32.842Z,0.00
2022-11-19T03:07:32.841Z,0.00
2022-11-19T03:08:32.959Z,0.00
2022-11-19T03:09:32.751Z,0.00
2022-11-19T03:10:32.732Z,0.00
2022-11-19T03:11:32.842Z,0.00
2022-11-19T03:12:32.699Z,0.00
2022-11-19T03:13:32.686Z,0.00
2022-11-19T03:14:32.667Z,0.00
2022-11-19T03:15:32.656Z,0.00
2022-11-19T03:16:32.654Z,0.00
2022-11-19T03:17:32.627Z,0.00
2022-11-19T03:18:32.610Z,0.00
2022-11-19T03:19:32.618Z,0.00
2022-11-19T03:20:32.588Z,0.00
2022-11-19T03:21:32.595Z,0.00
2022-11-19T03:22:32.552Z,0.00
2022-11-19T03:23:32.540Z,0.00
2022-11-19T03:24:32.519Z,0.00
2022-11-19T03:25:32.511Z,0.00
2022-11-19T03:26:32.611Z,0.00
2022-11-19T03:27:32.476Z,0.00
2022-11-19T03:28:32.459Z,0.00
2022-11-19T03:29:32.450Z,0.00
2022-11-19T03:30:32.432Z,0.00
2022-11-19T03:31:32.484Z,0.00
2022-11-19T03:32:32.398Z,0.00
2022-11-19T03:33:32.391Z,0.00
2022-11-19T03:34:32.368Z,0.00
2022-11-19T03:35:32.385Z,0.00
2022-11-19T03:36:32.383Z,0.00
2022-11-19T03:37:32.329Z,0.00
2022-11-19T03:38:32.309Z,0.00
2022-11-19T03:39:32.298Z,0.00
2022-11-19T03:40:32.279Z,0.00
2022-11-19T03:41:32.268Z,0.00
2022-11-19T03:42:32.249Z,0.00
2022-11-19T03:43:32.236Z,0.00
2022-11-19T03:44:32.221Z,0.00
2022-11-19T03:45:32.223Z,0.00
2022-11-19T03:46:32.189Z,0.00
2022-11-19T03:47:32.178Z,0.00
2022-11-19T03:48:32.159Z,0.00
2022-11-19T03:49:32.147Z,0.00
2022-11-19T03:50:32.178Z,0.00
2022-11-19T03:51:32.183Z,0.00
2022-11-19T03:52:32.099Z,0.00
2022-11-19T03:53:32.087Z,0.00
2022-11-19T03:54:32.068Z,0.00
2022-11-19T03:55:32.058Z,0.00
2022-11-19T03:56:32.114Z,0.00
2022-11-19T03:57:32.027Z,0.00
2022-11-19T03:58:32.013Z,0.00
2022-11-19T03:59:31.999Z,0.00
2022-11-19T04:00:31.981Z,0.00
2022-11-19T04:01:32.067Z,0.00
2022-11-19T04:02:31.949Z,0.00
2022-11-19T04:03:31.938Z,0.00
2022-11-19T04:04:31.920Z,0.00
2022-11-19T04:05:31.908Z,0.00
2022-11-19T04:06:31.958Z,0.00
2022-11-19T04:07:32.007Z,0.00
2022-11-19T04:08:31.860Z,0.00
2022-11-19T04:09:31.847Z,0.00
2022-11-19T04:10:31.829Z,0.00
2022-11-19T04:11:31.818Z,0.00
2022-11-19T04:12:31.801Z,0.00
2022-11-19T04:13:31.788Z,0.00
2022-11-19T04:14:31.770Z,0.00
2022-11-19T04:15:31.757Z,0.00
2022-11-19T04:16:31.752Z,0.00
2022-11-19T04:17:31.729Z,0.00
2022-11-19T04:18:31.709Z,0.00
2022-11-19T04:19:31.697Z,0.00
2022-11-19T04:20:31.680Z,0.00
2022-11-19T04:22:31.653Z,0.00
2022-11-19T04:23:31.654Z,0.00
2022-11-19T04:24:31.625Z,0.00
2022-11-19T04:25:31.605Z,0.00
2022-11-19T04:26:31.594Z,0.00
2022-11-19T04:27:31.576Z,0.00
2022-11-19T04:28:31.664Z,0.00
2022-11-19T04:29:31.546Z,0.00
2022-11-19T04:30:31.533Z,0.00
2022-11-19T04:31:31.519Z,0.00
2022-11-19T04:32:31.504Z,0.00
2022-11-19T04:33:31.488Z,0.00
2022-11-19T04:34:31.475Z,0.00
2022-11-19T04:35:31.456Z,0.00
2022-11-19T04:36:31.444Z,0.00
2022-11-19T04:37:31.428Z,0.00
2022-11-19T04:38:31.413Z,0.00
2022-11-19T04:39:31.421Z,0.00
2022-11-19T04:40:31.380Z,0.00
2022-11-19T04:41:31.369Z,0.00
2022-11-19T04:42:31.351Z,0.00
2022-11-19T04:43:31.341Z,0.00
2022-11-19T04:44:31.321Z,0.00
2022-11-19T04:45:31.308Z,0.00
2022-11-19T04:46:31.291Z,0.00
2022-11-19T04:47:31.278Z,0.00
2022-11-19T04:48:31.260Z,0.00
2022-11-19T04:49:31.248Z,0.00
2022-11-19T04:50:31.230Z,0.00
2022-11-19T04:51:31.217Z,0.00
2022-11-19T04:52:32.483Z,0.00
2022-11-19T04:53:31.188Z,0.00
2022-11-19T04:54:31.169Z,0.00
2022-11-19T04:55:31.180Z,0.00
2022-11-19T04:56:31.143Z,0.00
2022-11-19T04:57:31.178Z,0.00
2022-11-19T04:58:31.108Z,0.00
2022-11-19T04:59:31.097Z,0.00
2022-11-19T05:00:31.078Z,0.00
2022-11-19T05:01:31.147Z,0.00
2022-11-19T05:02:31.046Z,0.00
2022-11-19T05:03:31.036Z,0.00
2022-11-19T05:04:31.030Z,0.00
2022-11-19T05:05:31.006Z,0.00
2022-11-19T05:06:30.991Z,0.00
2022-11-19T05:07:31.110Z,0.00
2022-11-19T05:08:30.956Z,0.00
2022-11-19T05:09:30.945Z,0.00
2022-11-19T05:10:30.925Z,0.00
2022-11-19T05:11:30.930Z,0.00
2022-11-19T05:12:30.896Z,0.00
2022-11-19T05:13:30.884Z,0.00
2022-11-19T05:14:30.887Z,0.00
2022-11-19T05:15:30.852Z,0.00
2022-11-19T05:16:30.835Z,0.00
2022-11-19T05:17:30.822Z,0.00
2022-11-19T05:18:30.803Z,0.00
2022-11-19T05:19:30.792Z,0.00
2022-11-19T05:20:30.774Z,0.00
2022-11-19T05:21:30.761Z,0.00
2022-11-19T05:22:30.742Z,0.00
2022-11-19T05:23:30.731Z,0.00
2022-11-19T05:24:30.712Z,0.00
2022-11-19T05:25:30.699Z,0.00
2022-11-19T05:26:30.681Z,0.00
2022-11-19T05:27:30.698Z,0.00
2022-11-19T05:28:38.589Z,0.00
2022-11-19T05:29:30.738Z,0.00
2022-11-19T05:30:30.628Z,0.00
2022-11-19T05:31:30.606Z,0.00
2022-11-19T05:32:30.588Z,0.00
2022-11-19T05:33:33.996Z,0.00
2022-11-19T05:34:30.558Z,0.00
2022-11-19T05:35:30.551Z,0.00
2022-11-19T05:36:30.529Z,0.00
2022-11-19T05:37:30.514Z,0.00
2022-11-19T05:38:30.511Z,0.00
2022-11-19T05:39:30.484Z,0.00
2022-11-19T05:40:30.466Z,0.00
2022-11-19T05:41:30.456Z,0.00
2022-11-19T05:42:30.435Z,0.00
2022-11-19T05:43:30.445Z,0.00
2022-11-19T05:44:30.428Z,0.00
2022-11-19T05:45:30.417Z,0.00
2022-11-19T05:46:30.373Z,0.00
2022-11-19T05:47:30.361Z,0.00
2022-11-19T05:48:30.344Z,0.00
2022-11-19T05:49:30.330Z,0.00
2022-11-19T05:50:30.311Z,0.00
2022-11-19T05:51:30.300Z,0.00
2022-11-19T05:52:30.281Z,0.00
2022-11-19T05:53:30.270Z,0.00
2022-11-19T05:54:30.396Z,0.00
2022-11-19T05:55:30.238Z,0.00
2022-11-19T05:56:30.220Z,0.00
2022-11-19T05:57:30.209Z,0.00
2022-11-19T05:58:30.191Z,0.00
2022-11-19T05:59:30.195Z,0.00
2022-11-19T06:00:30.158Z,0.00
2022-11-19T06:01:30.164Z,0.00
2022-11-19T06:02:30.174Z,0.00
2022-11-19T06:03:30.115Z,0.00
2022-11-19T06:04:30.096Z,0.00
2022-11-19T06:05:30.090Z,0.00
2022-11-19T06:06:30.065Z,0.00
2022-11-19T06:07:30.206Z,0.00
2022-11-19T06:08:30.040Z,0.00
2022-11-19T06:09:30.026Z,0.00
2022-11-19T06:10:30.105Z,0.00
2022-11-19T06:11:29.991Z,0.00
2022-11-19T06:12:29.972Z,4.00
2022-11-19T06:13:29.963Z,4.00
2022-11-19T06:14:29.944Z,0.00
2022-11-19T06:15:29.949Z,0.00
2022-11-19T06:16:29.913Z,4.00
2022-11-19T06:17:29.900Z,4.00
2022-11-19T06:18:29.880Z,4.00
2022-11-19T06:19:29.869Z,4.00
2022-11-19T06:20:29.853Z,4.00
2022-11-19T06:21:29.839Z,4.00
2022-11-19T06:22:29.820Z,8.00
2022-11-19T06:23:29.809Z,4.00
2022-11-19T06:24:29.789Z,8.00
2022-11-19T06:25:29.778Z,8.00
2022-11-19T06:26:29.758Z,12.00
2022-11-19T06:27:29.747Z,12.00
2022-11-19T06:28:29.728Z,12.00
2022-11-19T06:29:29.717Z,16.00
2022-11-19T06:30:29.704Z,20.00
2022-11-19T06:31:29.704Z,24.00
2022-11-19T06:32:29.667Z,28.00
2022-11-19T06:33:29.754Z,28.00
2022-11-19T06:34:29.641Z,32.00
2022-11-19T06:35:29.632Z,36.00
2022-11-19T06:36:35.966Z,36.00
2022-11-19T06:37:29.593Z,40.00
2022-11-19T06:38:29.574Z,44.00
2022-11-19T06:39:29.561Z,48.00
2022-11-19T06:40:29.544Z,52.00
2022-11-19T06:41:29.533Z,60.00
2022-11-19T06:42:29.518Z,68.00
2022-11-19T06:43:29.501Z,72.00
2022-11-19T06:44:29.487Z,84.00
2022-11-19T06:45:29.471Z,92.00
2022-11-19T06:46:29.451Z,100.00
2022-11-19T06:47:29.459Z,112.00
2022-11-19T06:48:29.426Z,120.00
2022-11-19T06:49:29.413Z,132.00
2022-11-19T06:50:29.390Z,140.00
2022-11-19T06:51:29.379Z,148.00
2022-11-19T06:52:29.363Z,156.00
2022-11-19T06:53:29.349Z,168.00
2022-11-19T06:54:29.330Z,176.00
2022-11-19T06:55:29.319Z,184.00
2022-11-19T06:56:29.300Z,196.00
2022-11-19T06:57:29.288Z,208.00
2022-11-19T06:58:29.270Z,220.00
2022-11-19T06:59:29.256Z,228.00
2022-11-19T07:00:29.237Z,244.00
2022-11-19T07:01:29.260Z,256.00
2022-11-19T07:02:29.206Z,264.00
2022-11-19T07:03:29.342Z,272.00
2022-11-19T07:04:29.179Z,280.00
2022-11-19T07:05:29.165Z,292.00
2022-11-19T07:06:29.146Z,308.00
2022-11-19T07:07:29.206Z,316.00
2022-11-19T07:08:29.119Z,304.00
2022-11-19T07:09:29.104Z,292.00
2022-11-19T07:10:29.136Z,292.00
2022-11-19T07:11:29.072Z,304.00
2022-11-19T07:12:29.055Z,316.00
2022-11-19T07:13:29.042Z,328.00
2022-11-19T07:14:29.024Z,336.00
2022-11-19T07:15:29.013Z,344.00
2022-11-19T07:16:28.993Z,348.00
2022-11-19T07:17:29.082Z,352.00
2022-11-19T07:18:28.962Z,360.00
2022-11-19T07:19:28.973Z,364.00
2022-11-19T07:20:29.015Z,372.00
2022-11-19T07:21:28.921Z,392.00
2022-11-19T07:22:28.903Z,404.00
2022-11-19T07:23:28.905Z,420.00
2022-11-19T07:24:28.872Z,436.00
2022-11-19T07:25:28.870Z,452.00
2022-11-19T07:26:28.842Z,472.00
2022-11-19T07:27:28.828Z,496.00
2022-11-19T07:28:28.811Z,512.00
2022-11-19T07:29:28.799Z,536.00
2022-11-19T07:30:28.824Z,556.00
2022-11-19T07:31:28.769Z,580.00
2022-11-19T07:32:28.750Z,604.00
2022-11-19T07:33:28.739Z,616.00
2022-11-19T07:34:28.720Z,616.00
2022-11-19T07:35:28.773Z,628.00
2022-11-19T07:36:28.894Z,628.00
2022-11-19T07:37:28.677Z,624.00
2022-11-19T07:38:32.762Z,624.00
2022-11-19T07:39:28.647Z,620.00
2022-11-19T07:40:28.741Z,624.00
2022-11-19T07:41:28.718Z,620.00
2022-11-19T07:42:28.615Z,616.00
2022-11-19T07:43:28.589Z,616.00
2022-11-19T07:44:28.570Z,624.00
2022-11-19T07:45:28.559Z,632.00
2022-11-19T07:46:28.539Z,644.00
2022-11-19T07:47:28.527Z,648.00
2022-11-19T07:48:28.510Z,648.00
2022-11-19T07:49:28.498Z,644.00
2022-11-19T07:50:28.480Z,636.00
2022-11-19T07:51:28.508Z,636.00
2022-11-19T07:52:28.450Z,636.00
2022-11-19T07:53:28.439Z,640.00
2022-11-19T07:54:28.420Z,632.00
2022-11-19T07:55:28.409Z,604.00
2022-11-19T07:56:28.391Z,560.00
2022-11-19T07:57:30.397Z,556.00
2022-11-19T07:58:28.360Z,580.00
2022-11-19T07:59:28.350Z,592.00
2022-11-19T08:00:28.343Z,612.00
2022-11-19T08:01:28.390Z,628.00
2022-11-19T08:02:28.308Z,640.00
2022-11-19T08:03:28.290Z,640.00
2022-11-19T08:04:28.274Z,640.00
2022-11-19T08:05:28.261Z,628.00
2022-11-19T08:06:28.246Z,624.00
2022-11-19T08:07:28.317Z,624.00
2022-11-19T08:08:28.217Z,624.00
2022-11-19T08:09:28.201Z,624.00
2022-11-19T08:10:31.806Z,624.00
2022-11-19T08:11:28.171Z,612.00
2022-11-19T08:12:28.154Z,588.00
2022-11-19T08:13:28.200Z,568.00
2022-11-19T08:14:28.124Z,548.00
2022-11-19T08:15:28.114Z,548.00
2022-11-19T08:16:28.094Z,564.00
2022-11-19T08:17:28.085Z,600.00
2022-11-19T08:18:31.136Z,624.00
2022-11-19T08:19:28.052Z,656.00
2022-11-19T08:20:28.035Z,680.00
2022-11-19T08:21:28.023Z,688.00
2022-11-19T08:22:28.005Z,676.00
2022-11-19T08:23:28.010Z,664.00
2022-11-19T08:24:27.977Z,640.00
2022-11-19T08:25:27.965Z,612.00
2022-11-19T08:26:27.945Z,592.00
2022-11-19T08:27:27.934Z,584.00
2022-11-19T08:28:27.918Z,572.00
2022-11-19T08:29:27.906Z,568.00
2022-11-19T08:30:27.886Z,564.00
2022-11-19T08:31:27.891Z,572.00
2022-11-19T08:32:27.858Z,580.00
2022-11-19T08:33:27.846Z,576.00
2022-11-19T08:34:27.828Z,572.00
2022-11-19T08:35:27.817Z,576.00
2022-11-19T08:36:27.799Z,584.00
2022-11-19T08:37:27.789Z,588.00
2022-11-19T08:38:27.774Z,604.00
2022-11-19T08:39:27.780Z,620.00
2022-11-19T08:40:27.941Z,648.00
2022-11-19T08:41:27.730Z,688.00
2022-11-19T08:42:27.724Z,720.00
2022-11-19T08:43:27.702Z,740.00
2022-11-19T08:44:27.680Z,784.00
2022-11-19T08:45:27.669Z,860.00
2022-11-19T08:46:27.651Z,864.00
2022-11-19T08:47:27.639Z,828.00
2022-11-19T08:48:27.623Z,856.00
2022-11-19T08:49:27.611Z,920.00
2022-11-19T08:50:27.592Z,972.00
2022-11-19T08:51:27.580Z,1036.00
2022-11-19T08:52:27.562Z,1124.00
2022-11-19T08:53:27.548Z,1176.00
2022-11-19T08:54:27.544Z,1260.00
2022-11-19T08:55:27.545Z,1288.00
2022-11-19T08:56:27.505Z,1312.00
2022-11-19T08:57:27.490Z,1340.00
2022-11-19T08:58:27.481Z,1332.00
2022-11-19T08:59:27.461Z,1428.00
2022-11-19T09:00:27.472Z,1416.00
2022-11-19T09:01:27.430Z,1396.00
2022-11-19T09:02:27.419Z,1380.00
2022-11-19T09:03:27.400Z,1412.00
2022-11-19T09:04:27.391Z,1388.00
2022-11-19T09:05:27.372Z,1368.00
2022-11-19T09:06:27.361Z,1384.00
2022-11-19T09:07:27.412Z,1408.00
2022-11-19T09:08:27.331Z,1424.00
2022-11-19T09:09:27.319Z,1408.00
2022-11-19T09:10:27.302Z,1376.00
2022-11-19T09:11:27.303Z,1348.00
2022-11-19T09:12:27.274Z,1320.00
2022-11-19T09:13:27.259Z,1312.00
2022-11-19T09:14:27.245Z,1308.00
2022-11-19T09:15:27.227Z,1296.00
2022-11-19T09:16:27.218Z,1288.00
2022-11-19T09:17:27.452Z,1264.00
2022-11-19T09:18:27.188Z,1244.00
2022-11-19T09:19:27.175Z,1252.00
2022-11-19T09:20:27.160Z,1220.00
2022-11-19T09:21:27.194Z,1180.00
2022-11-19T09:22:27.131Z,1160.00
2022-11-19T09:23:27.128Z,1160.00
2022-11-19T09:24:27.105Z,1144.00
2022-11-19T09:25:27.087Z,1132.00
2022-11-19T09:26:27.076Z,1140.00
2022-11-19T09:27:27.082Z,1152.00
2022-11-19T09:28:27.046Z,1160.00
2022-11-19T09:29:27.030Z,1160.00
2022-11-19T09:30:27.019Z,1160.00
2022-11-19T09:31:27.001Z,1160.00
2022-11-19T09:32:26.995Z,1164.00
2022-11-19T09:33:26.976Z,1172.00
2022-11-19T09:34:26.965Z,1184.00
2022-11-19T09:35:26.946Z,1200.00
2022-11-19T09:36:26.934Z,1216.00
2022-11-19T09:37:26.918Z,1256.00
2022-11-19T09:38:26.910Z,1368.00
2022-11-19T09:39:26.890Z,1336.00
2022-11-19T09:40:26.880Z,1328.00
2022-11-19T09:41:26.862Z,1336.00
2022-11-19T09:42:26.850Z,1332.00
2022-11-19T09:43:26.943Z,1336.00
2022-11-19T09:44:26.823Z,1344.00
2022-11-19T09:45:26.805Z,1336.00
2022-11-19T09:46:26.796Z,1316.00
2022-11-19T09:47:26.779Z,1284.00
2022-11-19T09:48:26.767Z,1292.00
2022-11-19T09:49:26.749Z,1308.00
2022-11-19T09:50:26.740Z,1352.00
2022-11-19T09:51:26.722Z,1392.00
2022-11-19T09:52:26.711Z,1440.00
2022-11-19T09:53:26.696Z,1588.00
2022-11-19T09:54:26.683Z,1820.00
2022-11-19T09:55:26.668Z,1976.00
2022-11-19T09:56:26.658Z,1904.00
2022-11-19T09:57:26.643Z,1672.00
2022-11-19T09:58:26.630Z,1580.00
2022-11-19T09:59:26.629Z,1676.00
2022-11-19T10:00:26.602Z,1844.00
2022-11-19T10:01:26.587Z,2060.00
2022-11-19T10:02:26.707Z,1952.00
2022-11-19T10:03:32.804Z,2048.00
2022-11-19T10:04:26.553Z,1992.00
2022-11-19T10:05:26.533Z,2056.00
2022-11-19T10:06:26.522Z,2088.00
2022-11-19T10:07:26.508Z,2096.00
2022-11-19T10:08:26.495Z,2112.00
2022-11-19T10:09:26.479Z,2156.00
2022-11-19T10:10:26.472Z,2156.00
2022-11-19T10:11:26.453Z,2136.00
2022-11-19T10:12:26.442Z,1996.00
2022-11-19T10:13:26.426Z,2076.00
2022-11-19T10:14:26.414Z,1664.00
2022-11-19T10:15:26.423Z,1592.00
2022-11-19T10:16:26.389Z,1744.00
2022-11-19T10:17:26.372Z,1512.00
2022-11-19T10:18:26.360Z,1496.00
2022-11-19T10:19:26.374Z,1460.00
2022-11-19T10:20:26.336Z,1512.00
2022-11-19T10:21:26.320Z,1524.00
2022-11-19T10:22:26.309Z,1456.00
2022-11-19T10:23:26.343Z,1440.00
2022-11-19T10:24:26.283Z,1308.00
2022-11-19T10:25:26.269Z,1236.00
2022-11-19T10:26:26.257Z,1192.00
2022-11-19T10:27:26.240Z,1140.00
2022-11-19T10:28:26.230Z,1104.00
2022-11-19T10:29:26.214Z,1096.00
2022-11-19T10:30:26.210Z,1060.00
2022-11-19T10:31:26.305Z,1060.00
2022-11-19T10:32:26.177Z,1036.00
2022-11-19T10:33:26.163Z,1012.00
2022-11-19T10:34:26.153Z,1004.00
2022-11-19T10:35:26.134Z,1004.00
2022-11-19T10:36:26.125Z,1024.00
2022-11-19T10:37:26.108Z,1044.00
2022-11-19T10:38:26.095Z,1068.00
2022-11-19T10:39:26.080Z,1104.00
2022-11-19T10:40:26.070Z,1188.00
2022-11-19T10:41:26.061Z,1184.00
2022-11-19T10:42:26.042Z,1348.00
2022-11-19T10:43:26.032Z,1668.00
2022-11-19T10:44:26.015Z,1700.00
2022-11-19T10:45:26.005Z,1708.00
2022-11-19T10:46:25.987Z,1796.00
2022-11-19T10:47:26.009Z,1828.00
2022-11-19T10:48:25.962Z,1844.00
2022-11-19T10:49:25.945Z,1804.00
2022-11-19T10:50:26.036Z,1948.00
2022-11-19T10:51:25.920Z,1924.00
2022-11-19T10:52:25.922Z,1880.00
2022-11-19T10:53:25.894Z,1812.00
2022-11-19T10:54:25.884Z,1860.00
2022-11-19T10:55:25.866Z,1972.00
2022-11-19T10:56:25.853Z,1972.00
2022-11-19T10:57:25.838Z,1972.00
2022-11-19T10:58:25.828Z,1964.00
2022-11-19T10:59:25.860Z,1964.00
2022-11-19T11:00:25.901Z,1960.00
2022-11-19T11:01:25.824Z,1924.00
2022-11-19T11:02:28.161Z,1824.00
2022-11-19T11:03:25.775Z,1764.00
2022-11-19T11:05:25.735Z,1872.00
2022-11-19T11:06:25.719Z,1636.00
2022-11-19T11:07:25.767Z,1880.00
2022-11-19T11:08:25.694Z,1896.00
2022-11-19T11:09:25.684Z,1952.00
2022-11-19T11:10:25.668Z,1828.00
2022-11-19T11:11:25.657Z,1516.00
2022-11-19T11:12:25.643Z,1344.00
2022-11-19T11:13:25.648Z,1308.00
2022-11-19T11:14:25.615Z,1808.00
2022-11-19T11:15:25.606Z,1788.00
2022-11-19T11:16:25.590Z,1848.00
2022-11-19T11:17:25.580Z,2040.00
2022-11-19T11:18:25.567Z,2144.00
2022-11-19T11:19:25.580Z,2104.00
2022-11-19T11:20:25.538Z,2140.00
2022-11-19T11:21:25.531Z,2136.00
2022-11-19T11:22:25.516Z,2140.00
2022-11-19T11:23:25.515Z,2144.00
2022-11-19T11:24:25.488Z,1936.00
2022-11-19T11:25:25.531Z,2052.00
2022-11-19T11:26:25.466Z,1956.00
2022-11-19T11:27:25.458Z,1724.00
2022-11-19T11:28:25.447Z,1728.00
2022-11-19T11:29:25.430Z,2008.00
2022-11-19T11:30:25.411Z,1928.00
2022-11-19T11:31:25.404Z,2160.00
2022-11-19T11:32:25.388Z,2240.00
2022-11-19T11:33:25.379Z,2312.00
2022-11-19T11:34:25.363Z,2140.00
2022-11-19T11:35:25.372Z,1892.00
2022-11-19T11:36:25.339Z,1948.00
2022-11-19T11:37:25.329Z,2052.00
2022-11-19T11:38:25.315Z,2360.00
2022-11-19T11:39:25.305Z,2272.00
2022-11-19T11:40:25.288Z,2352.00
2022-11-19T11:42:25.265Z,2440.00
2022-11-19T11:43:25.272Z,2456.00
2022-11-19T11:44:25.239Z,2452.00
2022-11-19T11:45:25.231Z,2308.00
2022-11-19T11:46:25.214Z,2060.00
2022-11-19T11:47:25.206Z,2308.00
2022-11-19T11:48:25.191Z,2376.00
2022-11-19T11:49:25.500Z,2380.00
2022-11-19T11:50:25.271Z,2412.00
2022-11-19T11:51:25.182Z,2416.00
2022-11-19T11:52:25.145Z,2592.00
2022-11-19T11:53:25.135Z,2612.00
2022-11-19T11:54:25.117Z,2596.00
2022-11-19T11:55:25.113Z,2488.00
2022-11-19T11:56:25.097Z,2572.00
2022-11-19T11:57:25.100Z,2480.00
2022-11-19T11:58:25.079Z,2600.00
2022-11-19T11:59:25.062Z,2624.00
2022-11-19T12:00:25.054Z,2184.00
2022-11-19T12:01:25.140Z,1868.00
2022-11-19T12:02:25.103Z,1836.00
2022-11-19T12:03:25.015Z,2400.00
2022-11-19T12:04:25.004Z,2516.00
2022-11-19T12:05:24.994Z,2528.00
2022-11-19T12:06:24.977Z,2480.00
2022-11-19T12:07:25.039Z,2448.00
2022-11-19T12:08:27.052Z,2392.00
2022-11-19T12:09:24.955Z,2384.00
2022-11-19T12:10:24.931Z,2392.00
2022-11-19T12:11:24.922Z,2376.00
2022-11-19T12:12:24.907Z,2368.00
2022-11-19T12:13:24.909Z,1984.00
2022-11-19T12:14:24.886Z,2400.00
2022-11-19T12:15:24.877Z,2436.00
2022-11-19T12:16:24.862Z,2288.00
2022-11-19T12:17:24.852Z,1872.00
2022-11-19T12:18:24.840Z,2156.00
2022-11-19T12:19:24.828Z,2264.00
2022-11-19T12:20:24.816Z,2260.00
2022-11-19T12:21:24.806Z,2260.00
2022-11-19T12:22:24.791Z,2252.00
2022-11-19T12:23:24.808Z,2212.00
2022-11-19T12:24:24.771Z,2192.00
2022-11-19T12:25:24.760Z,2228.00
2022-11-19T12:26:24.795Z,2244.00
2022-11-19T12:27:24.738Z,2244.00
2022-11-19T12:28:24.722Z,2264.00
2022-11-19T12:29:24.714Z,2348.00
2022-11-19T12:30:24.698Z,2316.00
2022-11-19T12:31:29.564Z,2308.00
2022-11-19T12:32:24.678Z,2308.00
2022-11-19T12:33:24.669Z,1796.00
2022-11-19T12:34:24.667Z,2260.00
2022-11-19T12:35:24.646Z,2004.00
2022-11-19T12:36:24.632Z,1728.00
2022-11-19T12:37:24.623Z,1736.00
2022-11-19T12:38:24.608Z,2060.00
2022-11-19T12:39:24.618Z,2260.00
2022-11-19T12:40:24.586Z,2240.00
2022-11-19T12:41:24.578Z,2200.00
2022-11-19T12:42:24.563Z,2288.00
2022-11-19T12:43:24.557Z,1684.00
2022-11-19T12:44:24.541Z,2000.00
2022-11-19T12:45:24.533Z,2212.00
2022-11-19T12:46:24.518Z,2076.00
2022-11-19T12:47:24.510Z,1680.00
2022-11-19T12:48:24.496Z,1676.00
2022-11-19T12:49:24.487Z,1852.00